sensor_id;sensor_type;location;lat;lon;timestamp;pressure;altitude;pressure_sealevel;temperature;humidity
46690;BME280;32423;45.398;10.874;2023-04-22T00:02:09;100650.78;;;13.07;71.10
46690;BME280;32423;45.398;10.874;2023-04-22T00:05:03;100656.13;;;13.04;71.27
46690;BME280;32423;45.398;10.874;2023-04-22T00:07:52;100652.72;;;13.07;71.95
46690;BME280;32423;45.398;10.874;2023-04-22T00:10:44;100646.44;;;13.15;71.49
46690;BME280;32423;45.398;10.874;2023-04-22T00:13:36;100649.38;;;13.01;71.74
46690;BME280;32423;45.398;10.874;2023-04-22T00:16:28;100641.97;;;12.60;72.37
46690;BME280;32423;45.398;10.874;2023-04-22T00:19:19;100646.13;;;12.37;73.02
46690;BME280;32423;45.398;10.874;2023-04-22T00:22:11;100646.34;;;12.53;72.49
46690;BME280;32423;45.398;10.874;2023-04-22T00:25:03;100649.03;;;12.61;71.58
46690;BME280;32423;45.398;10.874;2023-04-22T00:27:55;100645.97;;;12.63;71.49
46690;BME280;32423;45.398;10.874;2023-04-22T00:30:45;100644.50;;;12.65;71.29
46690;BME280;32423;45.398;10.874;2023-04-22T00:33:37;100640.00;;;12.69;71.50
46690;BME280;32423;45.398;10.874;2023-04-22T00:36:29;100644.47;;;12.74;70.96
46690;BME280;32423;45.398;10.874;2023-04-22T00:39:21;100640.63;;;12.46;72.78
46690;BME280;32423;45.398;10.874;2023-04-22T00:42:12;100633.66;;;12.57;72.42
46690;BME280;32423;45.398;10.874;2023-04-22T00:45:02;100637.75;;;12.42;72.58
46690;BME280;32423;45.398;10.874;2023-04-22T00:47:54;100641.84;;;12.27;73.38
46690;BME280;32423;45.398;10.874;2023-04-22T00:50:46;100640.06;;;12.31;73.20
46690;BME280;32423;45.398;10.874;2023-04-22T00:53:38;100646.59;;;12.39;72.69
46690;BME280;32423;45.398;10.874;2023-04-22T00:56:30;100654.22;;;12.54;72.39
46690;BME280;32423;45.398;10.874;2023-04-22T00:59:24;100649.69;;;12.58;72.02
46690;BME280;32423;45.398;10.874;2023-04-22T01:02:16;100650.25;;;12.72;71.73
46690;BME280;32423;45.398;10.874;2023-04-22T01:05:08;100645.59;;;12.73;71.66
46690;BME280;32423;45.398;10.874;2023-04-22T01:08:00;100650.63;;;12.62;72.92
46690;BME280;32423;45.398;10.874;2023-04-22T01:10:47;100644.97;;;12.67;72.36
46690;BME280;32423;45.398;10.874;2023-04-22T01:13:39;100655.03;;;12.75;72.42
46690;BME280;32423;45.398;10.874;2023-04-22T01:16:29;100640.25;;;12.76;72.33
46690;BME280;32423;45.398;10.874;2023-04-22T01:19:22;100647.53;;;12.72;73.21
46690;BME280;32423;45.398;10.874;2023-04-22T01:22:14;100650.66;;;12.83;72.64
46690;BME280;32423;45.398;10.874;2023-04-22T01:25:07;100652.59;;;12.82;72.97
46690;BME280;32423;45.398;10.874;2023-04-22T01:27:59;100654.84;;;12.80;73.19
46690;BME280;32423;45.398;10.874;2023-04-22T01:30:48;100656.03;;;12.71;73.45
46690;BME280;32423;45.398;10.874;2023-04-22T01:33:40;100648.84;;;12.37;73.88
46690;BME280;32423;45.398;10.874;2023-04-22T01:36:33;100649.69;;;12.29;74.58
46690;BME280;32423;45.398;10.874;2023-04-22T01:39:27;100645.47;;;12.02;76.76
46690;BME280;32423;45.398;10.874;2023-04-22T01:42:19;100643.63;;;12.23;75.45
46690;BME280;32423;45.398;10.874;2023-04-22T01:45:11;100650.16;;;12.31;74.65
46690;BME280;32423;45.398;10.874;2023-04-22T01:48:03;100639.38;;;12.34;74.61
46690;BME280;32423;45.398;10.874;2023-04-22T01:50:55;100645.94;;;12.42;74.06
46690;BME280;32423;45.398;10.874;2023-04-22T01:53:44;100644.19;;;12.37;73.87
46690;BME280;32423;45.398;10.874;2023-04-22T01:56:36;100641.16;;;12.39;74.21
46690;BME280;32423;45.398;10.874;2023-04-22T01:59:28;100638.63;;;12.34;74.43
46690;BME280;32423;45.398;10.874;2023-04-22T02:02:20;100639.53;;;12.38;74.62
46690;BME280;32423;45.398;10.874;2023-04-22T02:05:13;100642.84;;;12.52;74.31
46690;BME280;32423;45.398;10.874;2023-04-22T02:08:05;100646.22;;;12.49;74.26
46690;BME280;32423;45.398;10.874;2023-04-22T02:10:57;100644.75;;;12.52;74.48
46690;BME280;32423;45.398;10.874;2023-04-22T02:13:49;100647.66;;;12.47;73.99
46690;BME280;32423;45.398;10.874;2023-04-22T02:16:44;100641.16;;;12.39;74.26
46690;BME280;32423;45.398;10.874;2023-04-22T02:19:36;100640.47;;;12.42;73.85
46690;BME280;32423;45.398;10.874;2023-04-22T02:22:28;100643.41;;;12.37;73.24
46690;BME280;32423;45.398;10.874;2023-04-22T02:25:20;100653.88;;;12.26;74.14
46690;BME280;32423;45.398;10.874;2023-04-22T02:28:09;100640.81;;;12.03;74.86
46690;BME280;32423;45.398;10.874;2023-04-22T02:31:01;100635.84;;;12.05;75.26
46690;BME280;32423;45.398;10.874;2023-04-22T02:33:53;100634.78;;;11.80;76.81
46690;BME280;32423;45.398;10.874;2023-04-22T02:36:45;100636.50;;;12.02;75.94
46690;BME280;32423;45.398;10.874;2023-04-22T02:39:38;100638.16;;;11.85;76.03
46690;BME280;32423;45.398;10.874;2023-04-22T02:42:30;100634.31;;;11.86;76.53
46690;BME280;32423;45.398;10.874;2023-04-22T02:45:22;100633.94;;;11.96;76.33
46690;BME280;32423;45.398;10.874;2023-04-22T02:48:12;100643.16;;;11.83;75.99
46690;BME280;32423;45.398;10.874;2023-04-22T02:51:04;100642.34;;;11.74;76.24
46690;BME280;32423;45.398;10.874;2023-04-22T02:53:56;100641.94;;;12.02;76.06
46690;BME280;32423;45.398;10.874;2023-04-22T02:56:48;100644.50;;;12.07;75.98
46690;BME280;32423;45.398;10.874;2023-04-22T02:59:40;100639.91;;;11.90;76.16
46690;BME280;32423;45.398;10.874;2023-04-22T03:02:32;100638.81;;;11.82;76.98
46690;BME280;32423;45.398;10.874;2023-04-22T03:05:29;100638.16;;;11.85;76.71
46690;BME280;32423;45.398;10.874;2023-04-22T03:08:18;100634.78;;;11.80;76.02
46690;BME280;32423;45.398;10.874;2023-04-22T03:11:10;100629.22;;;11.76;76.68
46690;BME280;32423;45.398;10.874;2023-04-22T03:14:02;100633.94;;;11.96;76.49
46690;BME280;32423;45.398;10.874;2023-04-22T03:16:54;100633.66;;;11.89;75.83
46690;BME280;32423;45.398;10.874;2023-04-22T03:19:46;100632.56;;;11.82;75.34
46690;BME280;32423;45.398;10.874;2023-04-22T03:22:37;100621.94;;;11.89;76.70
46690;BME280;32423;45.398;10.874;2023-04-22T03:25:31;100627.75;;;11.70;75.67
46690;BME280;32423;45.398;10.874;2023-04-22T03:28:23;100630.78;;;11.86;76.62
46690;BME280;32423;45.398;10.874;2023-04-22T03:31:15;100624.88;;;11.75;75.52
46690;BME280;32423;45.398;10.874;2023-04-22T03:34:07;100632.69;;;11.85;76.64
46690;BME280;32423;45.398;10.874;2023-04-22T03:36:59;100631.09;;;11.84;76.39
46690;BME280;32423;45.398;10.874;2023-04-22T03:39:51;100624.44;;;11.73;76.50
46690;BME280;32423;45.398;10.874;2023-04-22T03:50:34;100631.25;;;11.88;75.70
46690;BME280;32423;45.398;10.874;2023-04-22T03:53:28;100633.16;;;11.96;75.33
46690;BME280;32423;45.398;10.874;2023-04-22T03:56:20;100627.53;;;12.01;74.52
46690;BME280;32423;45.398;10.874;2023-04-22T03:59:14;100627.84;;;11.99;75.01
46690;BME280;32423;45.398;10.874;2023-04-22T04:05:24;100626.34;;;12.11;73.78
46690;BME280;32423;45.398;10.874;2023-04-22T04:12:31;100633.63;;;11.98;74.52
46690;BME280;32423;45.398;10.874;2023-04-22T04:15:23;100636.50;;;12.02;74.01
46690;BME280;32423;45.398;10.874;2023-04-22T04:18:18;100631.72;;;11.98;74.30
46690;BME280;32423;45.398;10.874;2023-04-22T04:24:20;100633.72;;;12.10;73.77
46690;BME280;32423;45.398;10.874;2023-04-22T04:27:09;100628.44;;;12.14;73.26
46690;BME280;32423;45.398;10.874;2023-04-22T04:30:06;100624.66;;;11.97;73.99
46690;BME280;32423;45.398;10.874;2023-04-22T04:33:01;100627.38;;;11.97;74.82
46690;BME280;32423;45.398;10.874;2023-04-22T04:35:55;100630.69;;;12.12;74.51
46690;BME280;32423;45.398;10.874;2023-04-22T04:38:49;100627.63;;;12.13;74.87
46690;BME280;32423;45.398;10.874;2023-04-22T04:41:41;100630.03;;;12.15;74.48
46690;BME280;32423;45.398;10.874;2023-04-22T04:44:33;100629.09;;;12.11;73.78
46690;BME280;32423;45.398;10.874;2023-04-22T04:47:26;100639.75;;;11.86;74.04
46690;BME280;32423;45.398;10.874;2023-04-22T04:50:22;100637.34;;;11.85;73.49
46690;BME280;32423;45.398;10.874;2023-04-22T04:53:17;100641.81;;;11.89;73.17
46690;BME280;32423;45.398;10.874;2023-04-22T04:56:07;100638.56;;;12.05;72.30
46690;BME280;32423;45.398;10.874;2023-04-22T04:58:59;100637.91;;;12.08;71.80
46690;BME280;32423;45.398;10.874;2023-04-22T05:01:51;100626.09;;;11.95;72.39
46690;BME280;32423;45.398;10.874;2023-04-22T05:04:43;100635.66;;;12.10;72.35
46690;BME280;32423;45.398;10.874;2023-04-22T05:07:35;100638.00;;;12.20;71.52
46690;BME280;32423;45.398;10.874;2023-04-22T05:10:28;100634.97;;;12.21;71.11
46690;BME280;32423;45.398;10.874;2023-04-22T05:13:24;100639.72;;;12.33;71.15
46690;BME280;32423;45.398;10.874;2023-04-22T05:16:16;100642.41;;;12.41;70.60
46690;BME280;32423;45.398;10.874;2023-04-22T05:19:08;100644.31;;;12.41;70.41
46690;BME280;32423;45.398;10.874;2023-04-22T05:22:07;100651.53;;;12.46;70.88
46690;BME280;32423;45.398;10.874;2023-04-22T05:24:59;100651.88;;;12.44;71.20
46690;BME280;32423;45.398;10.874;2023-04-22T05:27:51;100648.00;;;12.45;71.28
46690;BME280;32423;45.398;10.874;2023-04-22T05:30:49;100653.06;;;12.84;70.56
46690;BME280;32423;45.398;10.874;2023-04-22T05:33:41;100657.53;;;12.89;69.18
46690;BME280;32423;45.398;10.874;2023-04-22T05:36:33;100661.19;;;12.93;68.11
46690;BME280;32423;45.398;10.874;2023-04-22T05:39:23;100662.31;;;12.92;68.23
46690;BME280;32423;45.398;10.874;2023-04-22T05:42:15;100666.69;;;13.14;68.90
46690;BME280;32423;45.398;10.874;2023-04-22T05:45:07;100664.75;;;13.14;68.54
46690;BME280;32423;45.398;10.874;2023-04-22T05:51:20;100666.78;;;12.97;69.35
46690;BME280;32423;45.398;10.874;2023-04-22T05:54:12;100678.41;;;13.14;68.39
46690;BME280;32423;45.398;10.874;2023-04-22T05:57:04;100677.94;;;13.12;67.75
46690;BME280;32423;45.398;10.874;2023-04-22T05:59:56;100674.59;;;13.27;67.83
46690;BME280;32423;45.398;10.874;2023-04-22T06:02:49;100678.84;;;13.37;67.21
46690;BME280;32423;45.398;10.874;2023-04-22T06:05:38;100674.63;;;13.60;66.89
46690;BME280;32423;45.398;10.874;2023-04-22T06:08:30;100677.16;;;13.65;66.77
46690;BME280;32423;45.398;10.874;2023-04-22T06:11:22;100687.09;;;13.82;66.41
46690;BME280;32423;45.398;10.874;2023-04-22T06:14:14;100683.28;;;14.07;65.76
46690;BME280;32423;45.398;10.874;2023-04-22T06:17:05;100687.31;;;14.34;64.28
46690;BME280;32423;45.398;10.874;2023-04-22T06:19:57;100677.97;;;14.35;63.33
46690;BME280;32423;45.398;10.874;2023-04-22T06:22:50;100688.03;;;14.68;62.96
46690;BME280;32423;45.398;10.874;2023-04-22T06:25:42;100696.91;;;14.89;63.13
46690;BME280;32423;45.398;10.874;2023-04-22T06:28:34;100696.81;;;15.25;61.80
46690;BME280;32423;45.398;10.874;2023-04-22T06:31:29;100700.97;;;15.59;60.14
46690;BME280;32423;45.398;10.874;2023-04-22T06:34:21;100692.84;;;15.63;60.77
46690;BME280;32423;45.398;10.874;2023-04-22T06:37:13;100697.44;;;16.02;59.10
46690;BME280;32423;45.398;10.874;2023-04-22T06:40:06;100692.75;;;16.18;58.88
46690;BME280;32423;45.398;10.874;2023-04-22T06:43:22;100702.13;;;16.17;57.86
46690;BME280;32423;45.398;10.874;2023-04-22T06:46:32;100695.41;;;16.46;56.56
46690;BME280;32423;45.398;10.874;2023-04-22T06:49:47;100699.13;;;16.85;55.98
46690;BME280;32423;45.398;10.874;2023-04-22T06:52:58;100703.53;;;17.44;53.64
46690;BME280;32423;45.398;10.874;2023-04-22T06:55:50;100710.94;;;17.59;53.05
46690;BME280;32423;45.398;10.874;2023-04-22T06:58:42;100713.03;;;17.85;51.93
46690;BME280;32423;45.398;10.874;2023-04-22T07:01:34;100706.56;;;17.97;52.25
46690;BME280;32423;45.398;10.874;2023-04-22T07:04:27;100719.09;;;17.94;53.15
46690;BME280;32423;45.398;10.874;2023-04-22T07:07:18;100715.56;;;18.16;51.50
46690;BME280;32423;45.398;10.874;2023-04-22T07:10:11;100709.66;;;18.37;50.55
46690;BME280;32423;45.398;10.874;2023-04-22T07:13:13;100725.19;;;19.24;48.30
46690;BME280;32423;45.398;10.874;2023-04-22T07:16:05;100721.38;;;19.99;46.61
46690;BME280;32423;45.398;10.874;2023-04-22T07:18:57;100721.97;;;20.19;46.37
46690;BME280;32423;45.398;10.874;2023-04-22T07:21:47;100723.09;;;20.14;46.58
46690;BME280;32423;45.398;10.874;2023-04-22T07:24:37;100712.66;;;21.43;43.08
46690;BME280;32423;45.398;10.874;2023-04-22T07:27:26;100715.63;;;23.06;40.62
46690;BME280;32423;45.398;10.874;2023-04-22T07:30:18;100713.28;;;25.02;35.26
46690;BME280;32423;45.398;10.874;2023-04-22T07:33:10;100713.47;;;27.49;30.79
46690;BME280;32423;45.398;10.874;2023-04-22T07:36:02;100719.53;;;29.29;28.14
46690;BME280;32423;45.398;10.874;2023-04-22T07:38:52;100717.69;;;29.93;26.42
46690;BME280;32423;45.398;10.874;2023-04-22T07:41:44;100727.09;;;30.96;25.01
46690;BME280;32423;45.398;10.874;2023-04-22T07:44:35;100725.84;;;30.38;25.52
46690;BME280;32423;45.398;10.874;2023-04-22T07:47:27;100722.03;;;31.04;25.08
46690;BME280;32423;45.398;10.874;2023-04-22T07:50:19;100716.44;;;31.26;24.25
46690;BME280;32423;45.398;10.874;2023-04-22T07:53:08;100726.53;;;32.87;21.46
46690;BME280;32423;45.398;10.874;2023-04-22T07:56:01;100727.56;;;32.53;22.56
46690;BME280;32423;45.398;10.874;2023-04-22T07:58:52;100722.63;;;33.39;21.30
46690;BME280;32423;45.398;10.874;2023-04-22T08:01:42;100722.94;;;34.91;19.52
46690;BME280;32423;45.398;10.874;2023-04-22T08:04:34;100725.09;;;33.82;21.03
46690;BME280;32423;45.398;10.874;2023-04-22T08:07:26;100725.63;;;34.38;20.25
46690;BME280;32423;45.398;10.874;2023-04-22T08:10:18;100721.91;;;35.85;19.51
46690;BME280;32423;45.398;10.874;2023-04-22T08:13:10;100718.09;;;35.06;18.92
46690;BME280;32423;45.398;10.874;2023-04-22T08:16:03;100715.38;;;35.11;18.89
46690;BME280;32423;45.398;10.874;2023-04-22T08:18:55;100720.66;;;35.04;19.34
46690;BME280;32423;45.398;10.874;2023-04-22T08:21:44;100724.94;;;33.59;20.77
46690;BME280;32423;45.398;10.874;2023-04-22T08:24:34;100714.53;;;34.82;19.82
46690;BME280;32423;45.398;10.874;2023-04-22T08:27:26;100718.38;;;34.93;20.20
46690;BME280;32423;45.398;10.874;2023-04-22T08:30:18;100724.59;;;35.21;19.03
46690;BME280;32423;45.398;10.874;2023-04-22T08:33:07;100719.31;;;34.90;19.06
46690;BME280;32423;45.398;10.874;2023-04-22T08:35:59;100716.47;;;34.75;18.57
46690;BME280;32423;45.398;10.874;2023-04-22T08:38:51;100716.34;;;35.08;18.45
46690;BME280;32423;45.398;10.874;2023-04-22T08:41:43;100716.06;;;34.68;18.97
46690;BME280;32423;45.398;10.874;2023-04-22T08:44:35;100724.91;;;35.82;17.68
46690;BME280;32423;45.398;10.874;2023-04-22T08:47:29;100735.19;;;38.07;16.05
46690;BME280;32423;45.398;10.874;2023-04-22T08:50:22;100730.06;;;39.08;14.68
46690;BME280;32423;45.398;10.874;2023-04-22T08:53:14;100730.28;;;37.05;16.33
46690;BME280;32423;45.398;10.874;2023-04-22T08:56:06;100725.09;;;36.42;16.99
46690;BME280;32423;45.398;10.874;2023-04-22T08:58:58;100720.88;;;37.13;16.26
46690;BME280;32423;45.398;10.874;2023-04-22T09:01:51;100720.06;;;37.90;16.26
46690;BME280;32423;45.398;10.874;2023-04-22T09:04:43;100719.44;;;37.23;16.16
46690;BME280;32423;45.398;10.874;2023-04-22T09:07:37;100712.84;;;34.75;18.25
46690;BME280;32423;45.398;10.874;2023-04-22T09:10:30;100720.59;;;37.11;16.65
46690;BME280;32423;45.398;10.874;2023-04-22T09:13:20;100704.25;;;37.26;16.67
46690;BME280;32423;45.398;10.874;2023-04-22T09:16:12;100715.13;;;38.17;15.92
46690;BME280;32423;45.398;10.874;2023-04-22T09:19:04;100711.59;;;36.52;17.06
46690;BME280;32423;45.398;10.874;2023-04-22T09:21:56;100704.31;;;35.96;17.79
46690;BME280;32423;45.398;10.874;2023-04-22T09:24:51;100705.19;;;36.72;16.58
46690;BME280;32423;45.398;10.874;2023-04-22T09:27:43;100699.41;;;36.46;17.07
46690;BME280;32423;45.398;10.874;2023-04-22T09:30:38;100689.22;;;35.40;18.00
46690;BME280;32423;45.398;10.874;2023-04-22T09:33:29;100685.53;;;33.91;19.83
46690;BME280;32423;45.398;10.874;2023-04-22T09:36:26;100691.06;;;34.10;19.03
46690;BME280;32423;45.398;10.874;2023-04-22T09:39:18;100683.16;;;31.24;22.49
46690;BME280;32423;45.398;10.874;2023-04-22T09:42:08;100678.75;;;31.01;22.48
46690;BME280;32423;45.398;10.874;2023-04-22T09:45:00;100679.44;;;31.06;22.51
46690;BME280;32423;45.398;10.874;2023-04-22T09:47:53;100671.81;;;31.06;22.63
46690;BME280;32423;45.398;10.874;2023-04-22T09:50:45;100679.88;;;32.09;21.21
46690;BME280;32423;45.398;10.874;2023-04-22T09:53:38;100686.47;;;32.74;21.38
46690;BME280;32423;45.398;10.874;2023-04-22T09:56:49;100678.34;;;32.85;20.70
46690;BME280;32423;45.398;10.874;2023-04-22T09:59:41;100681.69;;;33.71;19.98
46690;BME280;32423;45.398;10.874;2023-04-22T10:02:33;100666.94;;;32.21;21.41
46690;BME280;32423;45.398;10.874;2023-04-22T10:05:25;100679.88;;;33.91;19.58
46690;BME280;32423;45.398;10.874;2023-04-22T10:08:17;100678.00;;;34.93;18.63
46690;BME280;32423;45.398;10.874;2023-04-22T10:11:09;100682.38;;;33.89;19.71
46690;BME280;32423;45.398;10.874;2023-04-22T10:14:01;100672.69;;;32.94;20.49
46690;BME280;32423;45.398;10.874;2023-04-22T10:16:51;100673.47;;;33.03;20.63
46690;BME280;32423;45.398;10.874;2023-04-22T10:19:44;100678.88;;;33.62;19.57
46690;BME280;32423;45.398;10.874;2023-04-22T10:22:37;100667.53;;;34.22;19.46
46690;BME280;32423;45.398;10.874;2023-04-22T10:25:27;100670.03;;;33.08;20.36
46690;BME280;32423;45.398;10.874;2023-04-22T10:28:20;100657.59;;;31.84;20.98
46690;BME280;32423;45.398;10.874;2023-04-22T10:31:19;100660.03;;;30.64;22.76
46690;BME280;32423;45.398;10.874;2023-04-22T10:34:10;100653.06;;;31.56;22.03
46690;BME280;32423;45.398;10.874;2023-04-22T10:37:08;100648.81;;;32.13;22.24
46690;BME280;32423;45.398;10.874;2023-04-22T10:40:31;100651.63;;;31.82;21.95
46690;BME280;32423;45.398;10.874;2023-04-22T10:43:14;100650.00;;;32.03;22.16
46690;BME280;32423;45.398;10.874;2023-04-22T10:46:06;100632.31;;;32.02;21.59
46690;BME280;32423;45.398;10.874;2023-04-22T10:48:58;100640.91;;;31.06;22.71
46690;BME280;32423;45.398;10.874;2023-04-22T10:51:47;100631.50;;;31.53;21.98
46690;BME280;32423;45.398;10.874;2023-04-22T10:57:33;100634.59;;;33.35;20.57
46690;BME280;32423;45.398;10.874;2023-04-22T11:00:45;100636.34;;;34.40;19.35
46690;BME280;32423;45.398;10.874;2023-04-22T11:03:36;100631.53;;;35.08;18.16
46690;BME280;32423;45.398;10.874;2023-04-22T11:06:28;100631.03;;;36.38;16.91
46690;BME280;32423;45.398;10.874;2023-04-22T11:09:18;100628.19;;;36.38;16.96
46690;BME280;32423;45.398;10.874;2023-04-22T11:12:53;100625.41;;;35.54;17.81
46690;BME280;32423;45.398;10.874;2023-04-22T11:15:18;100629.28;;;34.59;19.00
46690;BME280;32423;45.398;10.874;2023-04-22T11:18:16;100635.09;;;36.32;17.16
46690;BME280;32423;45.398;10.874;2023-04-22T11:21:06;100630.44;;;36.95;16.26
46690;BME280;32423;45.398;10.874;2023-04-22T11:23:56;100630.50;;;37.89;15.70
46690;BME280;32423;45.398;10.874;2023-04-22T11:26:53;100625.50;;;38.21;14.85
46690;BME280;32423;45.398;10.874;2023-04-22T11:29:43;100626.56;;;40.22;13.81
46690;BME280;32423;45.398;10.874;2023-04-22T11:32:55;100626.38;;;39.53;13.44
46690;BME280;32423;45.398;10.874;2023-04-22T11:35:47;100622.50;;;39.45;13.82
46690;BME280;32423;45.398;10.874;2023-04-22T11:38:38;100615.13;;;40.16;14.01
46690;BME280;32423;45.398;10.874;2023-04-22T11:41:26;100613.00;;;40.86;13.34
46690;BME280;32423;45.398;10.874;2023-04-22T11:44:21;100614.25;;;40.96;13.43
46690;BME280;32423;45.398;10.874;2023-04-22T11:47:13;100610.53;;;40.66;14.09
46690;BME280;32423;45.398;10.874;2023-04-22T11:50:05;100601.44;;;38.11;15.72
46690;BME280;32423;45.398;10.874;2023-04-22T11:52:58;100602.44;;;38.67;15.88
46690;BME280;32423;45.398;10.874;2023-04-22T11:55:50;100594.16;;;40.20;14.71
46690;BME280;32423;45.398;10.874;2023-04-22T11:58:41;100602.03;;;39.24;15.88
46690;BME280;32423;45.398;10.874;2023-04-22T12:01:31;100596.28;;;38.09;16.70
46690;BME280;32423;45.398;10.874;2023-04-22T12:04:23;100582.16;;;35.68;18.51
46690;BME280;32423;45.398;10.874;2023-04-22T12:07:15;100580.81;;;34.75;19.68
46690;BME280;32423;45.398;10.874;2023-04-22T12:10:07;100583.03;;;32.56;21.62
46690;BME280;32423;45.398;10.874;2023-04-22T12:12:59;100581.72;;;33.53;19.93
46690;BME280;32423;45.398;10.874;2023-04-22T12:15:51;100574.41;;;34.13;20.69
46690;BME280;32423;45.398;10.874;2023-04-22T12:18:46;100567.94;;;33.04;21.37
46690;BME280;32423;45.398;10.874;2023-04-22T12:21:39;100572.13;;;33.27;21.15
46690;BME280;32423;45.398;10.874;2023-04-22T12:24:30;100577.28;;;32.01;23.31
46690;BME280;32423;45.398;10.874;2023-04-22T12:27:22;100569.09;;;30.62;24.64
46690;BME280;32423;45.398;10.874;2023-04-22T12:30:12;100571.28;;;29.72;25.45
46690;BME280;32423;45.398;10.874;2023-04-22T12:33:02;100564.56;;;28.62;27.70
46690;BME280;32423;45.398;10.874;2023-04-22T12:35:54;100559.28;;;29.85;26.12
46690;BME280;32423;45.398;10.874;2023-04-22T12:38:44;100565.00;;;30.06;25.73
46690;BME280;32423;45.398;10.874;2023-04-22T12:41:36;100566.38;;;30.58;24.91
46690;BME280;32423;45.398;10.874;2023-04-22T12:44:28;100544.50;;;29.46;26.88
46690;BME280;32423;45.398;10.874;2023-04-22T12:47:17;100554.09;;;28.04;29.01
46690;BME280;32423;45.398;10.874;2023-04-22T12:50:09;100551.31;;;27.88;29.11
46690;BME280;32423;45.398;10.874;2023-04-22T12:52:59;100543.63;;;28.82;28.36
46690;BME280;32423;45.398;10.874;2023-04-22T12:55:51;100548.97;;;29.31;26.79
46690;BME280;32423;45.398;10.874;2023-04-22T12:58:40;100546.66;;;29.55;25.56
46690;BME280;32423;45.398;10.874;2023-04-22T13:01:27;100544.72;;;30.24;24.85
46690;BME280;32423;45.398;10.874;2023-04-22T13:04:19;100539.19;;;30.11;25.20
46690;BME280;32423;45.398;10.874;2023-04-22T13:07:09;100531.25;;;30.32;25.91
46690;BME280;32423;45.398;10.874;2023-04-22T13:10:02;100536.31;;;30.24;24.82
46690;BME280;32423;45.398;10.874;2023-04-22T13:12:54;100530.09;;;32.05;22.48
46690;BME280;32423;45.398;10.874;2023-04-22T13:15:46;100526.19;;;29.92;25.16
46690;BME280;32423;45.398;10.874;2023-04-22T13:18:38;100529.78;;;29.93;25.87
46690;BME280;32423;45.398;10.874;2023-04-22T13:21:25;100520.31;;;29.40;25.26
46690;BME280;32423;45.398;10.874;2023-04-22T13:24:17;100523.28;;;29.96;24.80
46690;BME280;32423;45.398;10.874;2023-04-22T13:27:07;100516.69;;;29.52;25.33
46690;BME280;32423;45.398;10.874;2023-04-22T13:29:56;100521.28;;;29.71;25.24
46690;BME280;32423;45.398;10.874;2023-04-22T13:32:48;100514.84;;;30.30;25.08
46690;BME280;32423;45.398;10.874;2023-04-22T13:35:40;100513.25;;;31.56;23.01
46690;BME280;32423;45.398;10.874;2023-04-22T13:38:32;100507.06;;;31.30;23.32
46690;BME280;32423;45.398;10.874;2023-04-22T13:41:21;100498.34;;;29.98;24.75
46690;BME280;32423;45.398;10.874;2023-04-22T13:44:11;100500.69;;;29.40;26.72
46690;BME280;32423;45.398;10.874;2023-04-22T13:47:01;100499.34;;;30.04;26.31
46690;BME280;32423;45.398;10.874;2023-04-22T13:49:46;100488.06;;;28.81;26.88
46690;BME280;32423;45.398;10.874;2023-04-22T13:52:35;100491.09;;;28.45;28.04
46690;BME280;32423;45.398;10.874;2023-04-22T13:55:25;100494.75;;;27.52;30.35
46690;BME280;32423;45.398;10.874;2023-04-22T13:58:16;100488.78;;;27.66;30.44
46690;BME280;32423;45.398;10.874;2023-04-22T14:01:06;100488.16;;;27.91;30.11
46690;BME280;32423;45.398;10.874;2023-04-22T14:03:58;100480.63;;;27.07;30.12
46690;BME280;32423;45.398;10.874;2023-04-22T14:06:50;100473.25;;;26.77;30.62
46690;BME280;32423;45.398;10.874;2023-04-22T14:09:42;100473.53;;;26.04;31.87
46690;BME280;32423;45.398;10.874;2023-04-22T14:12:31;100473.81;;;26.09;31.33
46690;BME280;32423;45.398;10.874;2023-04-22T14:15:21;100467.91;;;25.84;31.81
46690;BME280;32423;45.398;10.874;2023-04-22T14:18:08;100466.69;;;25.62;32.83
46690;BME280;32423;45.398;10.874;2023-04-22T14:20:57;100467.53;;;25.08;33.41
46690;BME280;32423;45.398;10.874;2023-04-22T14:23:47;100463.78;;;24.92;33.91
46690;BME280;32423;45.398;10.874;2023-04-22T14:26:36;100465.53;;;24.45;34.20
46690;BME280;32423;45.398;10.874;2023-04-22T14:29:28;100464.63;;;24.85;34.10
46690;BME280;32423;45.398;10.874;2023-04-22T14:32:20;100462.88;;;24.68;33.97
46690;BME280;32423;45.398;10.874;2023-04-22T14:35:12;100464.00;;;24.40;34.35
46690;BME280;32423;45.398;10.874;2023-04-22T14:38:02;100454.66;;;24.23;34.89
46690;BME280;32423;45.398;10.874;2023-04-22T14:40:52;100454.03;;;24.46;34.74
46690;BME280;32423;45.398;10.874;2023-04-22T14:43:44;100456.09;;;24.01;34.36
46690;BME280;32423;45.398;10.874;2023-04-22T14:46:33;100449.44;;;24.29;33.92
46690;BME280;32423;45.398;10.874;2023-04-22T14:49:25;100448.56;;;23.57;35.28
46690;BME280;32423;45.398;10.874;2023-04-22T14:52:17;100450.50;;;23.64;36.11
46690;BME280;32423;45.398;10.874;2023-04-22T14:55:05;100456.44;;;23.66;34.97
46690;BME280;32423;45.398;10.874;2023-04-22T14:57:54;100454.06;;;23.64;34.80
46690;BME280;32423;45.398;10.874;2023-04-22T15:00:49;100447.19;;;23.79;34.21
46690;BME280;32423;45.398;10.874;2023-04-22T15:03:41;100448.19;;;24.37;33.62
46690;BME280;32423;45.398;10.874;2023-04-22T15:06:33;100444.75;;;23.85;34.62
46690;BME280;32423;45.398;10.874;2023-04-22T15:09:25;100450.75;;;23.80;34.51
46690;BME280;32423;45.398;10.874;2023-04-22T15:12:17;100449.56;;;23.81;34.44
46690;BME280;32423;45.398;10.874;2023-04-22T15:15:09;100443.00;;;24.02;33.93